createdAt,value
2022-10-30T00:01:15.282Z,26.02
2022-10-30T00:03:43.828Z,24.80
2022-10-30T00:06:12.182Z,23.40
2022-10-30T00:08:39.608Z,24.25
2022-10-30T00:11:11.462Z,25.32
2022-10-30T00:13:41.881Z,25.05
2022-10-30T00:16:09.747Z,22.40
2022-10-30T00:18:39.387Z,24.32
2022-10-30T00:21:12.737Z,24.07
2022-10-30T00:23:47.174Z,20.25
2022-10-30T00:26:15.283Z,25.10
2022-10-30T00:28:43.539Z,20.77
2022-10-30T00:31:11.249Z,22.02
2022-10-30T00:33:39.278Z,20.30
2022-10-30T00:36:07.496Z,21.55
2022-10-30T00:38:35.238Z,26.30
2022-10-30T00:41:03.091Z,25.60
2022-10-30T00:43:37.941Z,26.00
2022-10-30T00:46:30.522Z,29.80
2022-10-30T00:49:12.424Z,25.57
2022-10-30T00:51:45.576Z,26.12
2022-10-30T00:54:16.256Z,24.95
2022-10-30T00:56:45.507Z,23.65
2022-10-30T00:59:17.736Z,28.42
2022-10-30T01:01:46.580Z,23.62
2022-10-30T01:04:16.857Z,24.05
2022-10-30T01:06:48.531Z,24.05
2022-10-30T01:09:16.357Z,26.30
2022-10-30T01:11:44.055Z,20.48
2022-10-30T01:14:15.219Z,23.50
2022-10-30T01:17:19.602Z,25.15
2022-10-30T01:20:12.476Z,23.35
2022-10-30T01:23:05.606Z,25.60
2022-10-30T01:26:11.778Z,23.92
2022-10-30T01:29:13.618Z,27.87
2022-10-30T01:31:58.648Z,24.25
2022-10-30T01:34:46.770Z,19.80
2022-10-30T01:37:20.193Z,20.48
2022-10-30T01:39:47.918Z,21.68
2022-10-30T01:42:40.606Z,22.22
2022-10-30T01:45:15.150Z,21.70
2022-10-30T01:48:08.047Z,22.13
2022-10-30T01:51:02.093Z,18.85
2022-10-30T01:53:42.395Z,20.92
2022-10-30T01:56:21.779Z,21.20
2022-10-30T01:59:07.370Z,22.00
2022-10-30T02:01:37.789Z,21.57
2022-10-30T02:04:09.802Z,21.52
2022-10-30T02:06:38.568Z,25.08
2022-10-30T02:09:07.685Z,22.05
2022-10-30T02:11:38.544Z,25.17
2022-10-30T02:14:07.589Z,20.85
2022-10-30T02:16:39.235Z,23.87
2022-10-30T02:19:07.045Z,22.93
2022-10-30T02:21:34.717Z,29.80
2022-10-30T02:24:02.564Z,33.05
2022-10-30T02:26:30.348Z,36.73
2022-10-30T02:28:57.871Z,36.60
2022-10-30T02:31:25.506Z,22.40
2022-10-30T02:33:53.246Z,21.25
2022-10-30T02:36:21.089Z,18.40
2022-10-30T02:38:48.953Z,21.37
2022-10-30T02:41:16.375Z,18.05
2022-10-30T02:43:44.059Z,20.32
2022-10-30T02:46:11.742Z,19.92
2022-10-30T02:48:39.346Z,18.30
2022-10-30T02:51:06.861Z,20.25
2022-10-30T02:53:34.644Z,18.00
2022-10-30T02:56:12.053Z,18.20
2022-10-30T02:58:41.358Z,19.67
2022-10-30T03:01:16.262Z,19.52
2022-10-30T03:03:45.229Z,17.77
2022-10-30T03:06:16.015Z,19.62
2022-10-30T03:08:44.463Z,20.55
2022-10-30T03:11:16.343Z,21.62
2022-10-30T03:13:45.684Z,18.35
2022-10-30T03:16:19.751Z,21.07
2022-10-30T03:18:48.167Z,20.32
2022-10-30T03:21:20.320Z,20.32
2022-10-30T03:23:49.945Z,18.57
2022-10-30T03:26:19.070Z,20.35
2022-10-30T03:28:48.544Z,22.50
2022-10-30T03:31:18.702Z,18.65
2022-10-30T03:33:47.281Z,18.70
2022-10-30T03:36:15.679Z,25.15
2022-10-30T03:38:43.208Z,21.90
2022-10-30T03:41:12.909Z,22.98
2022-10-30T03:43:40.845Z,18.73
2022-10-30T03:46:10.783Z,15.95
2022-10-30T03:48:38.908Z,18.90
2022-10-30T03:51:06.610Z,21.87
2022-10-30T03:53:34.843Z,24.40
2022-10-30T03:56:04.562Z,17.85
2022-10-30T03:58:36.793Z,19.17
2022-10-30T04:01:07.436Z,16.45
2022-10-30T04:03:37.120Z,19.32
2022-10-30T04:06:07.189Z,17.45
2022-10-30T04:08:34.921Z,17.27
2022-10-30T04:11:03.101Z,19.35
2022-10-30T04:13:30.933Z,18.12
2022-10-30T04:15:58.696Z,16.02
2022-10-30T04:18:26.627Z,17.85
2022-10-30T04:20:54.793Z,18.02
2022-10-30T04:23:25.672Z,18.30
2022-10-30T04:25:53.841Z,21.35
2022-10-30T04:28:21.487Z,29.57
2022-10-30T04:30:49.268Z,23.67
2022-10-30T04:33:17.733Z,21.05
2022-10-30T04:35:45.494Z,19.92
2022-10-30T04:38:18.078Z,22.17
2022-10-30T04:40:46.115Z,18.98
2022-10-30T04:43:14.289Z,19.42
2022-10-30T04:45:42.276Z,17.40
2022-10-30T04:48:14.340Z,12.50
2022-10-30T04:50:43.276Z,14.23
2022-10-30T04:53:17.273Z,17.62
2022-10-30T04:55:46.367Z,17.00
2022-10-30T04:58:14.269Z,14.13
2022-10-30T05:00:43.292Z,15.38
2022-10-30T05:03:21.997Z,14.87
2022-10-30T05:06:03.362Z,14.93
2022-10-30T05:08:31.264Z,16.60
2022-10-30T05:11:03.467Z,12.28
2022-10-30T05:13:31.843Z,15.55
2022-10-30T05:15:59.587Z,14.10
2022-10-30T05:18:27.271Z,18.70
2022-10-30T05:20:55.045Z,18.42
2022-10-30T05:23:23.464Z,15.05
2022-10-30T05:25:51.496Z,15.88
2022-10-30T05:28:20.814Z,17.10
2022-10-30T05:30:53.187Z,16.35
2022-10-30T05:33:38.923Z,16.60
2022-10-30T05:36:07.262Z,14.95
2022-10-30T05:38:34.890Z,13.98
2022-10-30T05:41:02.637Z,18.85
2022-10-30T05:43:30.758Z,13.48
2022-10-30T05:45:58.627Z,19.30
2022-10-30T05:48:26.832Z,18.67
2022-10-30T05:50:58.139Z,20.37
2022-10-30T05:53:27.636Z,21.55
2022-10-30T05:55:59.547Z,23.52
2022-10-30T05:58:28.901Z,24.82
2022-10-30T06:00:57.875Z,23.52
2022-10-30T06:03:27.288Z,23.12
2022-10-30T06:05:55.957Z,17.75
2022-10-30T06:08:25.281Z,18.27
2022-10-30T06:10:56.411Z,17.62
2022-10-30T06:13:26.301Z,19.52
2022-10-30T06:15:56.306Z,18.23
2022-10-30T06:18:27.143Z,23.70
2022-10-30T06:20:55.881Z,16.12
2022-10-30T06:23:28.286Z,18.85
2022-10-30T06:25:57.683Z,27.22
2022-10-30T06:28:33.307Z,21.55
2022-10-30T06:31:01.631Z,19.70
2022-10-30T06:33:31.360Z,20.00
2022-10-30T06:36:02.304Z,18.23
2022-10-30T06:38:29.967Z,20.90
2022-10-30T06:40:57.658Z,25.68
2022-10-30T06:43:43.733Z,25.52
2022-10-30T06:46:13.289Z,28.60
2022-10-30T06:48:42.822Z,21.68
2022-10-30T06:51:14.132Z,17.62
2022-10-30T06:53:42.020Z,26.75
2022-10-30T06:56:27.939Z,32.15
2022-10-30T06:58:56.988Z,37.28
2022-10-30T07:01:38.334Z,22.70
2022-10-30T07:04:19.882Z,18.45
2022-10-30T07:06:47.460Z,21.70
2022-10-30T07:09:15.079Z,19.55
2022-10-30T07:11:44.869Z,20.00
2022-10-30T07:14:20.611Z,24.02
2022-10-30T07:16:49.867Z,26.15
2022-10-30T07:19:17.598Z,21.35
2022-10-30T07:21:45.698Z,23.62
2022-10-30T07:24:14.052Z,21.37
2022-10-30T07:26:43.905Z,20.68
2022-10-30T07:29:25.488Z,22.37
2022-10-30T07:32:07.284Z,22.13
2022-10-30T07:34:36.688Z,20.52
2022-10-30T07:37:24.302Z,24.45
2022-10-30T07:40:02.817Z,19.57
2022-10-30T07:42:45.511Z,23.77
2022-10-30T07:45:15.050Z,21.33
2022-10-30T07:48:00.679Z,22.30
2022-10-30T07:50:37.096Z,19.77
2022-10-30T07:53:05.042Z,19.90
2022-10-30T07:55:34.276Z,14.43
2022-10-30T07:58:15.871Z,14.95
2022-10-30T08:00:54.474Z,19.40
2022-10-30T08:03:24.349Z,18.10
2022-10-30T08:05:57.747Z,18.07
2022-10-30T08:08:40.410Z,20.05
2022-10-30T08:11:08.035Z,21.45
2022-10-30T08:13:36.212Z,21.17
2022-10-30T08:16:03.964Z,23.67
2022-10-30T08:18:31.940Z,36.03
2022-10-30T08:20:59.604Z,30.08
2022-10-30T08:23:27.343Z,26.05
2022-10-30T08:25:59.771Z,28.80
2022-10-30T08:28:31.823Z,25.08
2022-10-30T08:30:59.619Z,27.05
2022-10-30T08:33:29.364Z,21.33
2022-10-30T08:35:59.251Z,24.92
2022-10-30T08:38:28.250Z,26.85
2022-10-30T08:41:03.780Z,20.20
2022-10-30T08:43:32.419Z,18.12
2022-10-30T08:46:01.570Z,24.55
2022-10-30T08:48:29.058Z,22.10
2022-10-30T08:51:01.435Z,24.90
2022-10-30T08:53:30.883Z,23.47
2022-10-30T08:55:58.924Z,19.10
2022-10-30T08:58:28.516Z,17.25
2022-10-30T09:01:01.025Z,19.90
2022-10-30T09:03:43.799Z,18.05
2022-10-30T09:06:14.472Z,15.32
2022-10-30T09:08:55.651Z,16.55
2022-10-30T09:11:31.866Z,15.23
2022-10-30T09:13:59.779Z,15.03
2022-10-30T09:16:27.462Z,15.50
2022-10-30T09:18:55.179Z,12.53
2022-10-30T09:21:22.902Z,15.55
2022-10-30T09:23:52.116Z,12.95
2022-10-30T09:26:41.034Z,12.28
2022-10-30T09:29:19.587Z,14.40
2022-10-30T09:31:55.896Z,12.03
2022-10-30T09:36:55.814Z,15.05
2022-10-30T09:39:24.962Z,16.82
2022-10-30T09:42:41.013Z,13.05
2022-10-30T09:45:53.869Z,16.15
2022-10-30T09:48:59.017Z,20.05
2022-10-30T09:51:41.700Z,17.30
2022-10-30T09:54:24.904Z,18.17
2022-10-30T09:57:04.027Z,14.93
2022-10-30T09:59:40.464Z,15.75
2022-10-30T10:02:34.578Z,17.37
2022-10-30T10:05:21.487Z,18.60
2022-10-30T10:07:58.235Z,15.75
2022-10-30T10:10:51.472Z,19.48
2022-10-30T10:13:27.828Z,15.08
2022-10-30T10:16:04.145Z,17.70
2022-10-30T10:18:37.428Z,12.82
2022-10-30T10:21:16.581Z,17.07
2022-10-30T10:23:50.593Z,16.10
2022-10-30T10:26:51.907Z,15.72
2022-10-30T10:29:36.351Z,14.30
2022-10-30T10:32:34.817Z,14.98
2022-10-30T10:35:19.745Z,101.38
2022-10-30T10:38:10.417Z,12.67
2022-10-30T10:41:02.911Z,11.48
2022-10-30T10:43:47.982Z,31.45
2022-10-30T10:46:55.470Z,10.72
2022-10-30T10:49:49.225Z,12.25
2022-10-30T10:52:23.393Z,9.53
2022-10-30T10:55:05.073Z,10.45
2022-10-30T10:57:36.747Z,9.88
2022-10-30T11:00:12.937Z,8.58
2022-10-30T11:02:46.215Z,7.92
2022-10-30T11:05:28.135Z,8.88
2022-10-30T11:08:03.417Z,10.60
2022-10-30T11:10:42.250Z,7.80
2022-10-30T11:13:14.579Z,10.20
2022-10-30T11:16:18.871Z,8.43
2022-10-30T11:18:48.279Z,9.40
2022-10-30T11:21:23.426Z,11.78
2022-10-30T11:23:51.503Z,10.05
2022-10-30T11:26:24.634Z,11.55
2022-10-30T11:29:14.507Z,16.12
2022-10-30T11:31:44.225Z,11.08
2022-10-30T11:34:25.587Z,11.40
2022-10-30T11:36:55.073Z,12.35
2022-10-30T11:39:27.269Z,12.55
2022-10-30T11:42:17.472Z,10.35
2022-10-30T11:44:51.324Z,13.15
2022-10-30T11:50:23.129Z,10.45
2022-10-30T11:52:55.574Z,9.65
2022-10-30T11:55:40.622Z,11.55
2022-10-30T11:58:09.404Z,9.60
2022-10-30T12:00:40.421Z,9.68
2022-10-30T12:03:31.267Z,13.98
2022-10-30T12:06:12.663Z,10.15
2022-10-30T12:08:40.525Z,15.08
2022-10-30T12:11:08.196Z,21.00
2022-10-30T12:13:40.314Z,16.10
2022-10-30T12:16:13.305Z,14.40
2022-10-30T12:18:42.413Z,13.78
2022-10-30T12:21:11.542Z,15.68
2022-10-30T12:23:39.930Z,12.00
2022-10-30T12:26:12.739Z,15.90
2022-10-30T12:28:42.169Z,11.63
2022-10-30T12:31:17.559Z,10.80
2022-10-30T12:33:59.353Z,13.88
2022-10-30T12:36:32.901Z,12.90
2022-10-30T12:39:24.842Z,22.27
2022-10-30T12:42:08.905Z,107.12
2022-10-30T12:44:50.903Z,36.35
2022-10-30T12:47:32.616Z,36.98
2022-10-30T12:50:32.556Z,92.15
2022-10-30T12:53:11.504Z,18.02
2022-10-30T12:55:47.449Z,16.67
2022-10-30T12:58:47.681Z,12.90
2022-10-30T13:01:25.549Z,11.75
2022-10-30T13:04:17.278Z,15.05
2022-10-30T13:06:56.021Z,16.23
2022-10-30T13:10:03.625Z,37.63
2022-10-30T13:12:36.113Z,13.48
2022-10-30T13:15:21.037Z,13.95
2022-10-30T13:17:49.635Z,13.98
2022-10-30T13:20:18.483Z,16.30
2022-10-30T13:23:11.715Z,17.65
2022-10-30T13:26:06.368Z,12.43
2022-10-30T13:28:39.363Z,12.25
2022-10-30T13:31:27.425Z,14.65
2022-10-30T13:34:03.054Z,19.92
2022-10-30T13:37:02.521Z,15.83
2022-10-30T13:39:43.346Z,18.32
2022-10-30T13:42:31.368Z,26.52
2022-10-30T13:45:28.222Z,24.72
2022-10-30T13:48:13.356Z,17.40
2022-10-30T13:51:16.324Z,27.52
2022-10-30T13:53:48.535Z,24.92
2022-10-30T13:56:19.251Z,16.70
2022-10-30T13:59:03.671Z,25.65
2022-10-30T14:01:42.683Z,20.23
2022-10-30T14:04:18.522Z,21.70
2022-10-30T14:07:42.495Z,22.70
2022-10-30T14:10:24.440Z,19.65
2022-10-30T14:13:09.167Z,21.50
2022-10-30T14:15:45.690Z,26.62
2022-10-30T14:18:19.262Z,20.45
2022-10-30T14:20:50.397Z,19.32
2022-10-30T14:23:25.599Z,27.50
2022-10-30T14:28:40.092Z,22.90
2022-10-30T14:31:15.567Z,19.23
2022-10-30T14:33:52.763Z,26.70
2022-10-30T14:36:28.243Z,21.48
2022-10-30T14:39:10.372Z,24.15
2022-10-30T14:41:49.504Z,31.75
2022-10-30T14:44:25.351Z,32.78
2022-10-30T14:47:04.107Z,38.15
2022-10-30T14:49:57.651Z,42.33
2022-10-30T14:52:42.502Z,33.58
2022-10-30T14:55:33.567Z,28.80
2022-10-30T14:58:06.617Z,49.35
2022-10-30T15:00:41.720Z,44.20
2022-10-30T15:06:18.519Z,35.28
2022-10-30T15:08:54.490Z,27.00
2022-10-30T15:12:03.823Z,31.20
2022-10-30T15:14:52.630Z,32.05
2022-10-30T15:17:35.707Z,34.38
2022-10-30T15:20:08.911Z,31.48
2022-10-30T15:22:36.735Z,31.40
2022-10-30T15:25:06.363Z,36.60
2022-10-30T15:27:35.056Z,37.45
2022-10-30T15:30:04.605Z,31.42
2022-10-30T15:32:32.185Z,32.05
2022-10-30T15:35:03.412Z,32.23
2022-10-30T15:37:31.969Z,43.70
2022-10-30T15:40:18.620Z,42.00
2022-10-30T15:42:48.827Z,41.58
2022-10-30T15:45:36.271Z,43.92
2022-10-30T15:48:29.656Z,65.62
2022-10-30T15:51:18.018Z,55.05
2022-10-30T15:53:53.583Z,59.80
2022-10-30T15:56:38.288Z,41.23
2022-10-30T15:59:06.468Z,33.67
2022-10-30T16:01:46.043Z,34.35
2022-10-30T16:04:24.487Z,34.65
2022-10-30T16:06:59.848Z,39.65
2022-10-30T16:09:28.712Z,37.88
2022-10-30T16:11:59.537Z,34.95
2022-10-30T16:14:32.061Z,42.60
2022-10-30T16:17:00.190Z,33.80
2022-10-30T16:19:31.568Z,39.20
2022-10-30T16:21:59.521Z,49.42
2022-10-30T16:24:35.196Z,37.35
2022-10-30T16:27:19.352Z,35.00
2022-10-30T16:29:56.846Z,38.78
2022-10-30T16:32:27.825Z,39.65
2022-10-30T16:35:01.489Z,51.18
2022-10-30T16:40:14.172Z,44.50
2022-10-30T16:42:53.757Z,49.93
2022-10-30T16:45:35.938Z,43.63
2022-10-30T16:50:46.265Z,55.88
2022-10-30T16:53:23.446Z,56.18
2022-10-30T16:55:52.859Z,48.38
2022-10-30T16:58:26.714Z,54.55
2022-10-30T17:00:59.598Z,41.95
2022-10-30T17:03:28.304Z,47.80
2022-10-30T17:06:04.549Z,47.98
2022-10-30T17:08:42.325Z,48.08
2022-10-30T17:11:20.619Z,46.40
2022-10-30T17:13:58.744Z,49.50
2022-10-30T17:16:32.739Z,53.73
2022-10-30T17:19:22.003Z,51.53
2022-10-30T17:21:52.920Z,49.83
2022-10-30T17:24:29.066Z,52.48
2022-10-30T17:27:00.602Z,48.40
2022-10-30T17:29:44.418Z,45.45
2022-10-30T17:32:27.747Z,56.00
2022-10-30T17:35:14.773Z,50.92
2022-10-30T17:37:42.776Z,44.95
2022-10-30T17:40:12.419Z,41.28
2022-10-30T17:42:40.453Z,47.65
2022-10-30T17:45:13.812Z,47.73
2022-10-30T17:50:13.314Z,39.03
2022-10-30T17:52:40.940Z,42.27
2022-10-30T17:55:25.184Z,53.52
2022-10-30T17:57:53.152Z,63.23
2022-10-30T18:00:21.009Z,52.83
2022-10-30T18:02:48.784Z,50.90
2022-10-30T18:05:20.754Z,41.83
2022-10-30T18:10:15.950Z,41.60
2022-10-30T18:12:44.694Z,48.75
2022-10-30T18:15:20.312Z,45.55
2022-10-30T18:17:48.039Z,47.27
2022-10-30T18:20:15.485Z,45.65
2022-10-30T18:22:42.979Z,41.53
2022-10-30T18:25:18.919Z,38.88
2022-10-30T18:27:46.493Z,69.10
2022-10-30T18:30:15.076Z,48.75
2022-10-30T18:32:43.415Z,44.15
2022-10-30T18:35:30.488Z,41.00
2022-10-30T18:37:58.235Z,43.00
2022-10-30T18:40:26.505Z,45.75
2022-10-30T18:42:56.068Z,50.08
2022-10-30T18:45:31.992Z,47.25
2022-10-30T18:48:00.751Z,46.42
2022-10-30T18:50:30.323Z,38.02
2022-10-30T18:52:59.487Z,37.75
2022-10-30T18:55:36.840Z,42.58
2022-10-30T18:58:06.099Z,40.38
2022-10-30T19:00:39.901Z,40.98
2022-10-30T19:03:06.721Z,39.80
2022-10-30T19:05:50.554Z,41.02
2022-10-30T19:08:18.524Z,41.23
2022-10-30T19:10:47.383Z,43.28
2022-10-30T19:13:19.395Z,45.85
2022-10-30T19:15:54.786Z,40.80
2022-10-30T19:18:23.870Z,44.35
2022-10-30T19:21:12.911Z,45.38
2022-10-30T19:23:27.158Z,41.40
2022-10-30T19:25:54.948Z,40.08
2022-10-30T19:28:23.187Z,42.75
2022-10-30T19:30:52.380Z,45.60
2022-10-30T19:33:23.355Z,48.50
2022-10-30T19:36:00.530Z,48.73
2022-10-30T19:38:29.670Z,40.45
2022-10-30T19:40:57.969Z,39.92
2022-10-30T19:43:25.538Z,36.10
2022-10-30T19:45:58.603Z,38.00
2022-10-30T19:48:56.745Z,36.95
2022-10-30T19:50:55.805Z,41.18
2022-10-30T19:53:23.296Z,38.75
2022-10-30T19:55:51.114Z,39.95
2022-10-30T19:58:22.163Z,42.13
2022-10-30T20:00:48.532Z,38.35
2022-10-30T20:03:18.332Z,40.35
2022-10-30T20:05:50.082Z,41.40
2022-10-30T20:08:21.371Z,41.13
2022-10-30T20:10:55.600Z,44.73
2022-10-30T20:13:25.139Z,38.10
2022-10-30T20:15:54.942Z,38.60
2022-10-30T20:18:29.964Z,36.30
2022-10-30T20:23:28.142Z,38.15
2022-10-30T20:26:04.201Z,38.58
2022-10-30T20:28:39.329Z,39.27
2022-10-30T20:31:07.874Z,37.78
2022-10-30T20:33:35.700Z,36.68
2022-10-30T20:36:04.025Z,37.13
2022-10-30T20:38:34.160Z,40.67
2022-10-30T20:41:04.349Z,41.42
2022-10-30T20:43:37.890Z,39.75
2022-10-30T20:46:09.538Z,39.18
2022-10-30T20:48:37.437Z,34.88
2022-10-30T20:51:06.146Z,35.00
2022-10-30T20:53:34.112Z,35.43
2022-10-30T20:56:01.762Z,36.08
2022-10-30T20:58:29.400Z,35.38
2022-10-30T21:00:58.527Z,34.73
2022-10-30T21:03:27.123Z,33.60
2022-10-30T21:05:58.153Z,32.80
2022-10-30T21:08:28.142Z,35.17
2022-10-30T21:11:03.526Z,33.00
2022-10-30T21:13:34.061Z,36.70
2022-10-30T21:16:08.280Z,31.45
2022-10-30T21:18:36.095Z,32.88
2022-10-30T21:21:07.599Z,35.85
2022-10-30T21:23:35.281Z,32.15
2022-10-30T21:26:09.656Z,31.07
2022-10-30T21:28:40.648Z,39.33
2022-10-30T21:31:13.315Z,44.23
2022-10-30T21:33:41.245Z,46.63
2022-10-30T21:36:15.451Z,40.10
2022-10-30T21:38:46.696Z,35.23
2022-10-30T21:41:18.294Z,29.95
2022-10-30T21:43:55.165Z,32.67
2022-10-30T21:46:26.361Z,31.45
2022-10-30T21:48:54.559Z,30.12
2022-10-30T21:51:26.697Z,31.87
2022-10-30T21:53:55.304Z,30.15
2022-10-30T21:56:26.628Z,27.20
2022-10-30T21:59:00.462Z,29.55
2022-10-30T22:01:30.823Z,30.50
2022-10-30T22:04:01.716Z,30.62
2022-10-30T22:06:30.058Z,33.80
2022-10-30T22:08:59.282Z,32.65
2022-10-30T22:11:28.224Z,26.62
2022-10-30T22:13:59.162Z,27.30
2022-10-30T22:16:28.949Z,24.50
2022-10-30T22:18:57.388Z,26.07
2022-10-30T22:21:25.682Z,25.68
2022-10-30T22:23:53.318Z,26.95
2022-10-30T22:26:22.451Z,23.62
2022-10-30T22:29:00.844Z,24.30
2022-10-30T22:31:29.920Z,24.75
2022-10-30T22:34:00.230Z,27.62
2022-10-30T22:36:32.133Z,23.87
2022-10-30T22:39:03.791Z,25.23
2022-10-30T22:41:36.497Z,27.95
2022-10-30T22:44:02.118Z,26.73
2022-10-30T22:46:30.896Z,20.57
2022-10-30T22:48:59.061Z,23.18
2022-10-30T22:51:26.721Z,24.15
2022-10-30T22:53:58.427Z,30.43
2022-10-30T22:56:30.516Z,25.17
2022-10-30T22:59:03.821Z,26.80
2022-10-30T23:01:34.503Z,25.30
2022-10-30T23:04:03.940Z,25.15
2022-10-30T23:06:34.228Z,34.45
2022-10-30T23:09:05.415Z,25.82
2022-10-30T23:11:33.112Z,26.55
2022-10-30T23:14:01.045Z,25.40
2022-10-30T23:16:29.681Z,28.85
2022-10-30T23:19:00.030Z,28.35
2022-10-30T23:21:30.815Z,30.23
2022-10-30T23:23:59.652Z,30.27
2022-10-30T23:26:33.663Z,30.40
2022-10-30T23:29:05.194Z,30.10
2022-10-30T23:31:39.800Z,29.15
2022-10-30T23:34:11.521Z,32.05
2022-10-30T23:36:40.356Z,31.30
2022-10-30T23:39:13.325Z,32.05
2022-10-30T23:41:41.115Z,35.52
2022-10-30T23:44:12.639Z,30.72
2022-10-30T23:46:40.752Z,28.20
2022-10-30T23:49:08.282Z,32.25
2022-10-30T23:51:35.777Z,32.30
2022-10-30T23:54:03.708Z,33.30
2022-10-30T23:56:31.741Z,33.28
2022-10-30T23:58:59.981Z,33.63
